Time;durP1;ratioP1;P1;durP2;ratioP2;P2;SDS_P1;SDS_P2;PMS_P1;PMS_P2;Temp;Humidity;BMP_temperature;BMP_pressure;BME280_temperature;BME280_humidity;BME280_pressure;Samples;Min_cycle;Max_cycle;Signal;HPM_P1;HPM_P2
2022/09/14 00:01:21;;;;;;;;;;;;;;;;;;5138202;27;19923;-80
2022/09/14 00:03:46;;;;;;;;;;;;;;;;;;5138221;27;19923;-80
2022/09/14 00:06:12;;;;;;;;;;;;;;;;;;5138345;27;19919;-79
2022/09/14 00:08:38;;;;;;;;;;;;;;;;;;5138255;27;19958;-79
2022/09/14 00:11:06;;;;;;;;;;;;;;;;;;5137191;27;19993;-79
2022/09/14 00:13:32;;;;;;;;;;;;;;;;;;5137624;27;19915;-79
2022/09/14 00:16:01;;;;;;;;;;;;;;;;;;5137986;27;20306;-79
2022/09/14 00:18:27;;;;;;;;;;;;;;;;;;5138207;27;19915;-79
2022/09/14 00:20:57;;;;;;;;;;;;;;;;;;5138007;27;19923;-79
2022/09/14 00:23:22;;;;;;;;;;;;;;;;;;5137850;27;19922;-78
2022/09/14 00:25:47;;;;;;;;;;;;;;;;;;5137663;27;19915;-79
2022/09/14 00:28:13;;;;;;;;;;;;;;;;;;5137417;27;20005;-80
2022/09/14 00:30:40;;;;;;;;;;;;;;;;;;5138019;27;19938;-79
2022/09/14 00:33:05;;;;;;;;;;;;;;;;;;5136447;27;20326;-79
2022/09/14 00:35:31;;;;;;;;;;;;;;;;;;5137792;27;19964;-81
2022/09/14 00:37:56;;;;;;;;;;;;;;;;;;5136379;27;19915;-80
2022/09/14 00:40:22;;;;;;;;;;;;;;;;;;5136487;27;19922;-79
2022/09/14 00:42:47;;;;;;;;;;;;;;;;;;5135757;27;19921;-78
2022/09/14 00:45:18;;;;;;;;;;;;;;;;;;5137415;27;19919;-78
2022/09/14 00:47:43;;;;;;;;;;;;;;;;;;5135998;27;19971;-78
2022/09/14 00:50:09;;;;;;;;;;;;;;;;;;5137434;27;20345;-78
2022/09/14 00:52:35;;;;;;;;;;;;;;;;;;5135955;27;20001;-78
2022/09/14 00:55:02;;;;;;;;;;;;;;;;;;5135880;27;19949;-81
2022/09/14 00:57:29;;;;;;;;;;;;;;;;;;5134898;27;19919;-80
2022/09/14 00:59:54;;;;;;;;;;;;;;;;;;5135832;27;19923;-78
2022/09/14 01:02:20;;;;;;;;;;;;;;;;;;5137036;27;19915;-78
2022/09/14 01:04:45;;;;;;;;;;;;;;;;;;5136894;27;20026;-78
2022/09/14 01:07:11;;;;;;;;;;;;;;;;;;5136891;27;19991;-78
2022/09/14 01:09:36;;;;;;;;;;;;;;;;;;5136917;27;19922;-81
2022/09/14 01:12:01;;;;;;;;;;;;;;;;;;5135677;27;19919;-78
2022/09/14 01:14:30;;;;;;;;;;;;;;;;;;5136974;27;19989;-78
2022/09/14 01:16:59;;;;;;;;;;;;;;;;;;5136918;27;19919;-78
2022/09/14 01:19:29;;;;;;;;;;;;;;;;;;5136557;27;20018;-78
2022/09/14 01:21:54;;;;;;;;;;;;;;;;;;5135385;27;19915;-78
2022/09/14 01:24:28;;;;;;;;;;;;;;;;;;5135141;27;20388;-78
2022/09/14 01:26:59;;;;;;;;;;;;;;;;;;5135272;27;19919;-78
2022/09/14 01:29:41;;;;;;;;;;;;;;;;;;5136498;27;19937;-78
2022/09/14 01:32:15;;;;;;;;;;;;;;;;;;5136423;27;20333;-78
2022/09/14 01:34:52;;;;;;;;;;;;;;;;;;5135267;27;19911;-80
2022/09/14 01:37:20;;;;;;;;;;;;;;;;;;5135299;27;20001;-78
2022/09/14 01:39:46;;;;;;;;;;;;;;;;;;5134701;27;20010;-78
2022/09/14 01:42:12;;;;;;;;;;;;;;;;;;5135016;27;19915;-79
2022/09/14 01:44:38;;;;;;;;;;;;;;;;;;5135110;27;20023;-79
2022/09/14 01:47:05;;;;;;;;;;;;;;;;;;5135036;27;19922;-80
2022/09/14 01:49:51;;;;;;;;;;;;;;;;;;5135041;27;19930;-79
2022/09/14 01:52:20;;;;;;;;;;;;;;;;;;5136302;27;19911;-79
2022/09/14 01:54:50;;;;;;;;;;;;;;;;;;5134718;27;19922;-79
2022/09/14 01:57:20;;;;;;;;;;;;;;;;;;5135773;27;19919;-79
2022/09/14 01:59:46;;;;;;;;;;;;;;;;;;5134752;27;19957;-79
2022/09/14 02:02:31;;;;;;;;;;;;;;;;;;5135308;27;19919;-79
2022/09/14 02:05:05;;;;;;;;;;;;;;;;;;5134759;27;19915;-80
2022/09/14 02:07:31;;;;;;;;;;;;;;;;;;5134724;27;19916;-80
2022/09/14 02:09:56;;;;;;;;;;;;;;;;;;5134348;27;19937;-79
2022/09/14 02:12:22;;;;;;;;;;;;;;;;;;5135829;27;19915;-79
2022/09/14 02:14:47;;;;;;;;;;;;;;;;;;5135705;27;20350;-79
2022/09/14 02:17:12;;;;;;;;;;;;;;;;;;5135723;27;19954;-79
2022/09/14 02:19:46;;;;;;;;;;;;;;;;;;5134350;27;20332;-79
2022/09/14 02:22:11;;;;;;;;;;;;;;;;;;5134392;27;20012;-79
2022/09/14 02:24:37;;;;;;;;;;;;;;;;;;5135449;27;19954;-80
2022/09/14 02:27:02;;;;;;;;;;;;;;;;;;5134605;27;19957;-80
2022/09/14 02:29:27;;;;;;;;;;;;;;;;;;5135899;27;19947;-79
2022/09/14 02:32:06;;;;;;;;;;;;;;;;;;5135762;27;19919;-80
2022/09/14 02:35:09;;;;;;;;;;;;;;;;;;5135709;27;19916;-78
2022/09/14 02:37:53;;;;;;;;;;;;;;;;;;5071841;28;19921;-79
2022/09/14 02:40:24;;;;;;;;;;;;;;;;;;5072309;28;20338;-80
2022/09/14 02:43:05;;;;;;;;;;;;;;;;;;5103139;28;19955;-79
2022/09/14 02:45:34;;;;;;;;;;;;;;;;;;5135302;27;19938;-80
2022/09/14 02:48:23;;;;;;;;;;;;;;;;;;5135490;27;20276;-80
2022/09/14 02:50:48;;;;;;;;;;;;;;;;;;5126654;27;19994;-80
2022/09/14 02:53:22;;;;;;;;;;;;;;;;;;5134997;27;20297;-80
2022/09/14 02:55:49;;;;;;;;;;;;;;;;;;5133861;28;20364;-79
2022/09/14 02:58:15;;;;;;;;;;;;;;;;;;5135284;27;19922;-79
2022/09/14 03:00:41;;;;;;;;;;;;;;;;;;5134331;28;20006;-80
2022/09/14 03:03:07;;;;;;;;;;;;;;;;;;5135272;27;19915;-80
2022/09/14 03:05:32;;;;;;;;;;;;;;;;;;5135276;27;19968;-79
2022/09/14 03:07:58;;;;;;;;;;;;;;;;;;5133661;28;20261;-80
2022/09/14 03:10:23;;;;;;;;;;;;;;;;;;5135105;27;19912;-79
2022/09/14 03:12:49;;;;;;;;;;;;;;;;;;5135004;27;19916;-80
2022/09/14 03:15:14;;;;;;;;;;;;;;;;;;5116724;28;20006;-79
2022/09/14 03:17:43;;;;;;;;;;;;;;;;;;5135119;27;19912;-80
2022/09/14 03:20:09;;;;;;;;;;;;;;;;;;5135495;27;19922;-79
2022/09/14 03:22:35;;;;;;;;;;;;;;;;;;5137598;27;19954;-79
2022/09/14 03:25:00;;;;;;;;;;;;;;;;;;5139411;27;19916;-79
2022/09/14 03:27:25;;;;;;;;;;;;;;;;;;5138989;27;19916;-80
2022/09/14 03:29:50;;;;;;;;;;;;;;;;;;5120736;27;20340;-80
2022/09/14 03:32:16;;;;;;;;;;;;;;;;;;5138897;27;19922;-80
2022/09/14 03:34:41;;;;;;;;;;;;;;;;;;5137707;27;19920;-79
2022/09/14 03:37:07;;;;;;;;;;;;;;;;;;5137310;27;19919;-79
2022/09/14 03:39:32;;;;;;;;;;;;;;;;;;5138717;27;20246;-80
2022/09/14 03:41:57;;;;;;;;;;;;;;;;;;5138624;27;20357;-80
2022/09/14 03:44:22;;;;;;;;;;;;;;;;;;5138815;27;19979;-80
2022/09/14 03:46:48;;;;;;;;;;;;;;;;;;5137401;27;19915;-79
2022/09/14 03:49:13;;;;;;;;;;;;;;;;;;5137234;27;19984;-80
2022/09/14 03:51:38;;;;;;;;;;;;;;;;;;5137228;27;20234;-80
2022/09/14 03:54:04;;;;;;;;;;;;;;;;;;5138382;27;19916;-80
2022/09/14 03:56:29;;;;;;;;;;;;;;;;;;5137269;27;20018;-80
2022/09/14 03:58:55;;;;;;;;;;;;;;;;;;5138220;27;20004;-80
2022/09/14 04:01:20;;;;;;;;;;;;;;;;;;5119880;27;19929;-80
2022/09/14 04:03:46;;;;;;;;;;;;;;;;;;5136951;27;19921;-80
2022/09/14 04:06:11;;;;;;;;;;;;;;;;;;5136930;27;19915;-80
2022/09/14 04:08:37;;;;;;;;;;;;;;;;;;5119746;27;20002;-80
2022/09/14 04:11:06;;;;;;;;;;;;;;;;;;5136853;27;20310;-79
2022/09/14 04:13:32;;;;;;;;;;;;;;;;;;5136985;27;20307;-80
2022/09/14 04:15:58;;;;;;;;;;;;;;;;;;5119812;27;19915;-80
2022/09/14 04:18:24;;;;;;;;;;;;;;;;;;5137615;27;19916;-79
2022/09/14 04:21:16;;;;;;;;;;;;;;;;;;5138145;27;19916;-79
2022/09/14 04:23:41;;;;;;;;;;;;;;;;;;5135135;27;20254;-80
2022/09/14 04:26:11;;;;;;;;;;;;;;;;;;5119633;27;19964;-79
2022/09/14 04:28:36;;;;;;;;;;;;;;;;;;5136705;27;19923;-79
2022/09/14 04:31:01;;;;;;;;;;;;;;;;;;5137487;27;19915;-79
2022/09/14 04:33:30;;;;;;;;;;;;;;;;;;5136531;27;19916;-80
2022/09/14 04:35:56;;;;;;;;;;;;;;;;;;5136319;27;20294;-80
2022/09/14 04:38:22;;;;;;;;;;;;;;;;;;5136742;27;20360;-81
2022/09/14 04:40:47;;;;;;;;;;;;;;;;;;5136506;27;19915;-79
2022/09/14 04:43:13;;;;;;;;;;;;;;;;;;5137369;27;19919;-79
2022/09/14 04:45:39;;;;;;;;;;;;;;;;;;5137266;27;20317;-81
2022/09/14 04:48:05;;;;;;;;;;;;;;;;;;5136197;27;19915;-79
2022/09/14 04:50:31;;;;;;;;;;;;;;;;;;5136335;27;20190;-79
2022/09/14 04:52:56;;;;;;;;;;;;;;;;;;5136236;27;19972;-79
2022/09/14 04:55:22;;;;;;;;;;;;;;;;;;5118929;27;19964;-79
2022/09/14 04:57:48;;;;;;;;;;;;;;;;;;5137042;27;19916;-79
2022/09/14 05:00:13;;;;;;;;;;;;;;;;;;5137334;27;19916;-79
2022/09/14 05:02:39;;;;;;;;;;;;;;;;;;5136946;27;20317;-79
2022/09/14 05:05:05;;;;;;;;;;;;;;;;;;5135671;27;19938;-79
2022/09/14 05:07:31;;;;;;;;;;;;;;;;;;5136908;27;19955;-79
2022/09/14 05:09:56;;;;;;;;;;;;;;;;;;5137467;27;19922;-79
2022/09/14 05:12:22;;;;;;;;;;;;;;;;;;5137409;27;20003;-80
2022/09/14 05:14:47;;;;;;;;;;;;;;;;;;5136814;27;19915;-79
2022/09/14 05:17:13;;;;;;;;;;;;;;;;;;5136723;27;20274;-79
2022/09/14 05:19:38;;;;;;;;;;;;;;;;;;5136741;27;19923;-80
2022/09/14 05:22:03;;;;;;;;;;;;;;;;;;5136736;27;19915;-81
2022/09/14 05:24:29;;;;;;;;;;;;;;;;;;5118193;27;20010;-79
2022/09/14 05:26:54;;;;;;;;;;;;;;;;;;5136567;27;19919;-79
2022/09/14 05:29:19;;;;;;;;;;;;;;;;;;5136443;27;19916;-79
2022/09/14 05:31:45;;;;;;;;;;;;;;;;;;5140186;27;19967;-83
2022/09/14 05:34:10;;;;;;;;;;;;;;;;;;5136653;27;20006;-80
2022/09/14 05:36:36;;;;;;;;;;;;;;;;;;5136009;27;19919;-80
2022/09/14 05:39:01;;;;;;;;;;;;;;;;;;5117964;27;19954;-80
2022/09/14 05:41:27;;;;;;;;;;;;;;;;;;5136363;27;19916;-79
2022/09/14 05:43:52;;;;;;;;;;;;;;;;;;5135918;27;19922;-79
2022/09/14 05:46:21;;;;;;;;;;;;;;;;;;5136261;27;19957;-78
2022/09/14 05:48:46;;;;;;;;;;;;;;;;;;5118244;27;20233;-79
2022/09/14 05:51:15;;;;;;;;;;;;;;;;;;5136279;27;19998;-77
2022/09/14 05:53:40;;;;;;;;;;;;;;;;;;5139731;27;19916;-78
2022/09/14 05:56:07;;;;;;;;;;;;;;;;;;5135706;27;19919;-78
2022/09/14 05:58:32;;;;;;;;;;;;;;;;;;5135116;27;19920;-79
2022/09/14 06:00:57;;;;;;;;;;;;;;;;;;5134376;27;19922;-78
2022/09/14 06:03:23;;;;;;;;;;;;;;;;;;5135583;27;20330;-79
2022/09/14 06:05:48;;;;;;;;;;;;;;;;;;5117709;27;20292;-77
2022/09/14 06:08:14;;;;;;;;;;;;;;;;;;5135894;27;20332;-78
2022/09/14 06:10:39;;;;;;;;;;;;;;;;;;5136433;27;19919;-79
2022/09/14 06:13:04;;;;;;;;;;;;;;;;;;5136222;27;20018;-79
2022/09/14 06:15:31;;;;;;;;;;;;;;;;;;5134700;27;20244;-79
2022/09/14 06:17:57;;;;;;;;;;;;;;;;;;5134721;27;19915;-79
2022/09/14 06:20:22;;;;;;;;;;;;;;;;;;5134435;27;19938;-79
2022/09/14 06:22:47;;;;;;;;;;;;;;;;;;5134765;27;20320;-79
2022/09/14 06:25:13;;;;;;;;;;;;;;;;;;5134642;27;19955;-79
2022/09/14 06:27:38;;;;;;;;;;;;;;;;;;5135539;27;19930;-77
2022/09/14 06:30:04;;;;;;;;;;;;;;;;;;5135549;27;19923;-79
2022/09/14 06:32:29;;;;;;;;;;;;;;;;;;5135809;27;20285;-78
2022/09/14 06:34:55;;;;;;;;;;;;;;;;;;5135361;27;19915;-79
2022/09/14 06:37:20;;;;;;;;;;;;;;;;;;5135750;27;20008;-79
2022/09/14 06:39:45;;;;;;;;;;;;;;;;;;5135257;27;19968;-78
2022/09/14 06:42:11;;;;;;;;;;;;;;;;;;5135782;27;19919;-79
2022/09/14 06:44:36;;;;;;;;;;;;;;;;;;5135696;27;19915;-79
2022/09/14 06:47:03;;;;;;;;;;;;;;;;;;5134297;28;19922;-79
2022/09/14 06:49:29;;;;;;;;;;;;;;;;;;5136417;27;19922;-79
2022/09/14 06:51:56;;;;;;;;;;;;;;;;;;5134186;28;20582;-80
2022/09/14 06:54:21;;;;;;;;;;;;;;;;;;5133749;27;19922;-80
2022/09/14 06:56:47;;;;;;;;;;;;;;;;;;5120186;27;20017;-80
2022/09/14 06:59:13;;;;;;;;;;;;;;;;;;5138304;27;19959;-78
2022/09/14 07:01:39;;;;;;;;;;;;;;;;;;5121160;27;19922;-78
2022/09/14 07:04:04;;;;;;;;;;;;;;;;;;5138067;27;20244;-79
2022/09/14 07:06:32;;;;;;;;;;;;;;;;;;5139353;27;19915;-80
2022/09/14 07:08:57;;;;;;;;;;;;;;;;;;5140366;27;19915;-80
2022/09/14 07:11:26;;;;;;;;;;;;;;;;;;5139897;27;20393;-78
2022/09/14 07:13:53;;;;;;;;;;;;;;;;;;5138150;27;19923;-80
2022/09/14 07:16:18;;;;;;;;;;;;;;;;;;5138035;27;20339;-80
2022/09/14 07:18:44;;;;;;;;;;;;;;;;;;5137839;27;19916;-80
2022/09/14 07:21:10;;;;;;;;;;;;;;;;;;5139388;27;19919;-80
2022/09/14 07:23:36;;;;;;;;;;;;;;;;;;5120763;27;19920;-80
2022/09/14 07:26:06;;;;;;;;;;;;;;;;;;5139526;27;19943;-81
2022/09/14 07:28:31;;;;;;;;;;;;;;;;;;5138501;27;19969;-80
2022/09/14 07:30:57;;;;;;;;;;;;;;;;;;5120701;27;20296;-80
2022/09/14 07:33:22;;;;;;;;;;;;;;;;;;5138735;27;19973;-79
2022/09/14 07:35:47;;;;;;;;;;;;;;;;;;5138837;27;19922;-80
2022/09/14 07:38:13;;;;;;;;;;;;;;;;;;5138901;27;19915;-78
2022/09/14 07:40:38;;;;;;;;;;;;;;;;;;5138577;27;19915;-79
2022/09/14 07:43:03;;;;;;;;;;;;;;;;;;5138254;27;19999;-80
2022/09/14 07:45:30;;;;;;;;;;;;;;;;;;5138802;27;19916;-81
2022/09/14 07:47:55;;;;;;;;;;;;;;;;;;5138230;27;19922;-79
2022/09/14 07:50:20;;;;;;;;;;;;;;;;;;5120251;27;20009;-79
2022/09/14 07:52:48;;;;;;;;;;;;;;;;;;5137057;27;19966;-79
2022/09/14 07:55:13;;;;;;;;;;;;;;;;;;5138691;27;20335;-78
2022/09/14 07:57:38;;;;;;;;;;;;;;;;;;5138453;27;19920;-78
2022/09/14 08:00:04;;;;;;;;;;;;;;;;;;5139016;27;19916;-78
2022/09/14 08:02:29;;;;;;;;;;;;;;;;;;5137679;27;19943;-79
2022/09/14 08:04:55;;;;;;;;;;;;;;;;;;5136986;27;19978;-78
2022/09/14 08:07:20;;;;;;;;;;;;;;;;;;5138478;27;19915;-78
2022/09/14 08:09:46;;;;;;;;;;;;;;;;;;5136730;27;19951;-77
2022/09/14 08:12:12;;;;;;;;;;;;;;;;;;5138034;27;19972;-79
2022/09/14 08:14:37;;;;;;;;;;;;;;;;;;5120093;27;20056;-79
2022/09/14 08:17:03;;;;;;;;;;;;;;;;;;5119815;27;19968;-79
2022/09/14 08:19:29;;;;;;;;;;;;;;;;;;5138262;27;19963;-80
2022/09/14 08:21:54;;;;;;;;;;;;;;;;;;5136575;27;20017;-79
2022/09/14 08:24:20;;;;;;;;;;;;;;;;;;5136415;27;19964;-81
2022/09/14 08:26:45;;;;;;;;;;;;;;;;;;5137592;27;19916;-79
2022/09/14 08:29:11;;;;;;;;;;;;;;;;;;5137750;27;19919;-80
2022/09/14 08:31:37;;;;;;;;;;;;;;;;;;5136411;27;19929;-79
2022/09/14 08:34:03;;;;;;;;;;;;;;;;;;5137790;27;19911;-79
2022/09/14 08:36:29;;;;;;;;;;;;;;;;;;5137674;27;19994;-79
2022/09/14 08:38:55;;;;;;;;;;;;;;;;;;5136288;27;19915;-78
2022/09/14 08:41:27;;;;;;;;;;;;;;;;;;5137344;27;19911;-80
2022/09/14 08:43:52;;;;;;;;;;;;;;;;;;5136793;27;20222;-79
2022/09/14 08:46:29;;;;;;;;;;;;;;;;;;5139117;27;19998;-79
2022/09/14 08:48:55;;;;;;;;;;;;;;;;;;5137951;27;19922;-79
2022/09/14 08:51:20;;;;;;;;;;;;;;;;;;5137571;27;19915;-79
2022/09/14 08:53:45;;;;;;;;;;;;;;;;;;5120372;27;20256;-81
2022/09/14 08:56:21;;;;;;;;;;;;;;;;;;5124594;27;19926;-78
2022/09/14 08:58:55;;;;;;;;;;;;;;;;;;5136034;27;20205;-79
2022/09/14 09:01:23;;;;;;;;;;;;;;;;;;5137418;27;20332;-78
2022/09/14 09:03:55;;;;;;;;;;;;;;;;;;5137211;27;20060;-79
2022/09/14 09:06:21;;;;;;;;;;;;;;;;;;5136025;27;19916;-80
2022/09/14 09:09:04;;;;;;;;;;;;;;;;;;5135645;27;20343;-81
2022/09/14 09:11:38;;;;;;;;;;;;;;;;;;5135273;27;19916;-78
2022/09/14 09:14:06;;;;;;;;;;;;;;;;;;5118374;27;20332;-80
2022/09/14 09:16:31;;;;;;;;;;;;;;;;;;5118686;27;19995;-78
2022/09/14 09:19:04;;;;;;;;;;;;;;;;;;5118760;27;19915;-79
2022/09/14 09:21:40;;;;;;;;;;;;;;;;;;5136132;27;19945;-78
2022/09/14 09:24:24;;;;;;;;;;;;;;;;;;5119860;27;19916;-76
2022/09/14 09:26:49;;;;;;;;;;;;;;;;;;5137091;27;19919;-79
2022/09/14 09:29:14;;;;;;;;;;;;;;;;;;5154710;27;19916;-79
2022/09/14 09:31:43;;;;;;;;;;;;;;;;;;5159326;27;19903;-80
2022/09/14 09:34:12;;;;;;;;;;;;;;;;;;5159302;27;19908;-80
2022/09/14 09:36:38;;;;;;;;;;;;;;;;;;5159221;27;19911;-79
2022/09/14 09:39:04;;;;;;;;;;;;;;;;;;5154027;27;19923;-80
2022/09/14 09:41:30;;;;;;;;;;;;;;;;;;5136651;27;19964;-78
2022/09/14 09:44:08;;;;;;;;;;;;;;;;;;5135359;27;19916;-80
2022/09/14 09:46:33;;;;;;;;;;;;;;;;;;5136523;27;20250;-81
2022/09/14 09:49:02;;;;;;;;;;;;;;;;;;5136631;27;20027;-84
2022/09/14 09:51:28;;;;;;;;;;;;;;;;;;5136326;27;19922;-80
2022/09/14 09:54:02;;;;;;;;;;;;;;;;;;5134871;27;20006;-80
2022/09/14 09:56:31;;;;;;;;;;;;;;;;;;5136435;27;19928;-79
2022/09/14 09:58:56;;;;;;;;;;;;;;;;;;5135351;27;20037;-79
2022/09/14 10:01:26;;;;;;;;;;;;;;;;;;5117574;27;19916;-79
2022/09/14 10:04:05;;;;;;;;;;;;;;;;;;5134912;27;20238;-77
2022/09/14 10:06:30;;;;;;;;;;;;;;;;;;5117531;27;20289;-79
2022/09/14 10:08:59;;;;;;;;;;;;;;;;;;5117799;27;19949;-78
2022/09/14 10:11:36;;;;;;;;;;;;;;;;;;5135947;27;20304;-81
2022/09/14 10:14:05;;;;;;;;;;;;;;;;;;5135466;27;19916;-80
2022/09/14 10:16:40;;;;;;;;;;;;;;;;;;5117348;27;19953;-80
2022/09/14 10:19:32;;;;;;;;;;;;;;;;;;5134375;27;19922;-78
2022/09/14 10:22:17;;;;;;;;;;;;;;;;;;5132259;27;19915;-80
2022/09/14 10:24:50;;;;;;;;;;;;;;;;;;5135591;27;19915;-79
2022/09/14 10:27:32;;;;;;;;;;;;;;;;;;5135676;27;20408;-80
2022/09/14 10:29:57;;;;;;;;;;;;;;;;;;5133634;27;19980;-82
2022/09/14 10:32:23;;;;;;;;;;;;;;;;;;5134795;27;19923;-84
2022/09/14 10:34:50;;;;;;;;;;;;;;;;;;5134155;27;19918;-82
2022/09/14 10:37:31;;;;;;;;;;;;;;;;;;5134277;27;19923;-84
2022/09/14 10:40:14;;;;;;;;;;;;;;;;;;5117192;27;19950;-80
2022/09/14 10:42:43;;;;;;;;;;;;;;;;;;5118809;28;19922;-80
2022/09/14 10:45:24;;;;;;;;;;;;;;;;;;5134643;28;20322;-79
2022/09/14 10:47:53;;;;;;;;;;;;;;;;;;5136585;27;19992;-81
2022/09/14 10:50:32;;;;;;;;;;;;;;;;;;5134308;28;19915;-80
2022/09/14 10:53:17;;;;;;;;;;;;;;;;;;5135327;28;19916;-85
2022/09/14 10:55:42;;;;;;;;;;;;;;;;;;5137175;27;19920;-84
2022/09/14 11:19:41;;;;;;;;;;;;;;;;;;5114316;28;19923;-82
2022/09/14 11:22:28;;;;;;;;;;;;;;;;;;5116999;28;20249;-84
2022/09/14 11:25:19;;;;;;;;;;;;;;;;;;5104127;28;19915;-85
2022/09/14 11:27:53;;;;;;;;;;;;;;;;;;5094770;28;19916;-84
2022/09/14 11:30:22;;;;;;;;;;;;;;;;;;5083606;28;19916;-86
2022/09/14 11:33:02;;;;;;;;;;;;;;;;;;5083783;28;19915;-84
2022/09/14 11:35:47;;;;;;;;;;;;;;;;;;5101323;28;20287;-83
2022/09/14 11:38:17;;;;;;;;;;;;;;;;;;5100159;28;19915;-85
2022/09/14 11:40:59;;;;;;;;;;;;;;;;;;5103339;28;19916;-84
2022/09/14 11:43:37;;;;;;;;;;;;;;;;;;5108381;28;19969;-86
2022/09/14 11:46:05;;;;;;;;;;;;;;;;;;5123400;28;20014;-85
2022/09/14 11:49:01;;;;;;;;;;;;;;;;;;5102966;28;19916;-83
2022/09/14 11:51:36;;;;;;;;;;;;;;;;;;5100824;28;19932;-86
2022/09/14 11:57:24;;;;;;;;;;;;;;;;;;5120858;28;19973;-85
2022/09/14 11:59:54;;;;;;;;;;;;;;;;;;5086197;28;19916;-84
2022/09/14 12:02:22;;;;;;;;;;;;;;;;;;5105339;28;19922;-84
2022/09/14 12:05:06;;;;;;;;;;;;;;;;;;5122601;28;19965;-83
2022/09/14 12:07:54;;;;;;;;;;;;;;;;;;5120035;28;19942;-83
2022/09/14 12:10:19;;;;;;;;;;;;;;;;;;5101698;28;19951;-82
2022/09/14 12:12:57;;;;;;;;;;;;;;;;;;5100871;28;19955;-82
2022/09/14 12:15:33;;;;;;;;;;;;;;;;;;5083867;28;19912;-82
2022/09/14 12:18:04;;;;;;;;;;;;;;;;;;5100750;28;19919;-83
2022/09/14 12:20:36;;;;;;;;;;;;;;;;;;5101314;28;19919;-82
2022/09/14 12:23:10;;;;;;;;;;;;;;;;;;5119412;28;19915;-83
2022/09/14 12:25:36;;;;;;;;;;;;;;;;;;5101554;28;20305;-83
2022/09/14 12:28:01;;;;;;;;;;;;;;;;;;5101240;28;19975;-83
2022/09/14 12:30:39;;;;;;;;;;;;;;;;;;5118705;28;20014;-82
2022/09/14 12:33:24;;;;;;;;;;;;;;;;;;5100513;28;20024;-84
2022/09/14 12:35:49;;;;;;;;;;;;;;;;;;5067425;28;20285;-84
2022/09/14 12:38:30;;;;;;;;;;;;;;;;;;5083370;28;19922;-82
2022/09/14 12:40:59;;;;;;;;;;;;;;;;;;5118994;28;19915;-82
2022/09/14 12:43:36;;;;;;;;;;;;;;;;;;5100302;28;19915;-84
2022/09/14 12:46:20;;;;;;;;;;;;;;;;;;5101286;28;19916;-83
2022/09/14 12:51:12;;;;;;;;;;;;;;;;;;5118351;28;19916;-83
2022/09/14 12:53:38;;;;;;;;;;;;;;;;;;5099657;28;19916;-84
2022/09/14 12:56:04;;;;;;;;;;;;;;;;;;5100016;28;19966;-85
2022/09/14 12:58:29;;;;;;;;;;;;;;;;;;5098871;28;20002;-85
2022/09/14 13:01:07;;;;;;;;;;;;;;;;;;5098960;28;19923;-85
2022/09/14 13:03:32;;;;;;;;;;;;;;;;;;5099198;28;20381;-85
2022/09/14 13:05:57;;;;;;;;;;;;;;;;;;5118621;28;20002;-84
2022/09/14 13:08:23;;;;;;;;;;;;;;;;;;5101058;28;19916;-84
2022/09/14 13:10:49;;;;;;;;;;;;;;;;;;5100785;28;19916;-83
2022/09/14 13:13:19;;;;;;;;;;;;;;;;;;5101531;28;19920;-83
2022/09/14 13:16:03;;;;;;;;;;;;;;;;;;5098785;28;19972;-83
2022/09/14 13:18:30;;;;;;;;;;;;;;;;;;5098611;28;19920;-85
2022/09/14 13:20:57;;;;;;;;;;;;;;;;;;5116555;28;19923;-85
2022/09/14 13:23:26;;;;;;;;;;;;;;;;;;5081299;28;20246;-84
2022/09/14 13:25:51;;;;;;;;;;;;;;;;;;5099154;28;19915;-84
2022/09/14 13:28:17;;;;;;;;;;;;;;;;;;5098263;28;20398;-85
2022/09/14 13:30:42;;;;;;;;;;;;;;;;;;5097813;28;20329;-85
2022/09/14 13:33:17;;;;;;;;;;;;;;;;;;5098012;28;20008;-85
2022/09/14 13:35:58;;;;;;;;;;;;;;;;;;5098545;28;19947;-83
2022/09/14 13:38:24;;;;;;;;;;;;;;;;;;5082030;28;20344;-84
2022/09/14 13:40:49;;;;;;;;;;;;;;;;;;5098138;28;20007;-82
2022/09/14 13:43:18;;;;;;;;;;;;;;;;;;5116272;28;19955;-84
2022/09/14 13:45:43;;;;;;;;;;;;;;;;;;5097590;28;19916;-83
2022/09/14 13:48:09;;;;;;;;;;;;;;;;;;5097827;28;19964;-83
2022/09/14 13:50:35;;;;;;;;;;;;;;;;;;5081037;28;19916;-83
2022/09/14 13:53:05;;;;;;;;;;;;;;;;;;5097643;28;19915;-84
2022/09/14 13:55:30;;;;;;;;;;;;;;;;;;5081495;28;20017;-83
2022/09/14 13:58:06;;;;;;;;;;;;;;;;;;5097518;28;19988;-83
2022/09/14 14:00:32;;;;;;;;;;;;;;;;;;5097212;28;19911;-82
2022/09/14 14:03:00;;;;;;;;;;;;;;;;;;5080752;28;19920;-78
2022/09/14 14:05:26;;;;;;;;;;;;;;;;;;5079972;28;19915;-79
2022/09/14 14:08:03;;;;;;;;;;;;;;;;;;5098415;28;19922;-79
2022/09/14 14:10:33;;;;;;;;;;;;;;;;;;5097074;28;19916;-79
2022/09/14 14:12:58;;;;;;;;;;;;;;;;;;5097814;28;19919;-80
2022/09/14 14:15:23;;;;;;;;;;;;;;;;;;5080726;28;19916;-82
2022/09/14 14:17:48;;;;;;;;;;;;;;;;;;5097077;28;19941;-79
2022/09/14 14:20:23;;;;;;;;;;;;;;;;;;5116004;28;20298;-80
2022/09/14 14:22:55;;;;;;;;;;;;;;;;;;5115355;28;20321;-79
2022/09/14 14:25:23;;;;;;;;;;;;;;;;;;5097415;28;19916;-79
2022/09/14 14:27:49;;;;;;;;;;;;;;;;;;5080745;28;19997;-79
2022/09/14 14:30:18;;;;;;;;;;;;;;;;;;5098497;28;20311;-79
2022/09/14 14:32:48;;;;;;;;;;;;;;;;;;5115126;28;20241;-80
2022/09/14 14:35:17;;;;;;;;;;;;;;;;;;5096938;28;19912;-80
2022/09/14 14:37:42;;;;;;;;;;;;;;;;;;5097017;28;19916;-79
2022/09/14 14:40:10;;;;;;;;;;;;;;;;;;5115331;28;19911;-80
2022/09/14 14:42:35;;;;;;;;;;;;;;;;;;5079775;28;19916;-79
2022/09/14 14:45:00;;;;;;;;;;;;;;;;;;5096904;28;19915;-79
2022/09/14 14:47:26;;;;;;;;;;;;;;;;;;5115524;28;19911;-80
2022/09/14 14:49:52;;;;;;;;;;;;;;;;;;5079951;28;19988;-79
2022/09/14 14:52:17;;;;;;;;;;;;;;;;;;5115537;28;20394;-79
2022/09/14 14:54:42;;;;;;;;;;;;;;;;;;5096894;28;20366;-80
2022/09/14 14:57:08;;;;;;;;;;;;;;;;;;5114830;28;19941;-79
2022/09/14 14:59:34;;;;;;;;;;;;;;;;;;5115154;28;20392;-78
2022/09/14 15:01:59;;;;;;;;;;;;;;;;;;5096780;28;19958;-80
2022/09/14 15:04:25;;;;;;;;;;;;;;;;;;5096845;28;20238;-80
2022/09/14 15:06:50;;;;;;;;;;;;;;;;;;5115061;28;20025;-81
2022/09/14 15:09:17;;;;;;;;;;;;;;;;;;5080177;28;19915;-79
2022/09/14 15:11:47;;;;;;;;;;;;;;;;;;5096486;28;19916;-80
2022/09/14 15:14:14;;;;;;;;;;;;;;;;;;5096816;28;19923;-80
2022/09/14 15:16:39;;;;;;;;;;;;;;;;;;5081436;28;19942;-80
2022/09/14 15:19:05;;;;;;;;;;;;;;;;;;5080135;28;19920;-81
2022/09/14 15:21:30;;;;;;;;;;;;;;;;;;5080574;28;19920;-81
2022/09/14 15:23:57;;;;;;;;;;;;;;;;;;5097251;28;19916;-81
2022/09/14 15:26:23;;;;;;;;;;;;;;;;;;5098184;28;19943;-81
2022/09/14 15:28:49;;;;;;;;;;;;;;;;;;5096212;28;19920;-80
2022/09/14 15:31:14;;;;;;;;;;;;;;;;;;5096047;28;20018;-80
2022/09/14 15:33:40;;;;;;;;;;;;;;;;;;5097305;28;20015;-81
2022/09/14 15:36:05;;;;;;;;;;;;;;;;;;5097856;28;20200;-80
2022/09/14 15:38:30;;;;;;;;;;;;;;;;;;5098182;28;19966;-81
2022/09/14 15:40:56;;;;;;;;;;;;;;;;;;5096909;28;19974;-80
2022/09/14 15:43:21;;;;;;;;;;;;;;;;;;5097063;28;20357;-82
2022/09/14 15:45:46;;;;;;;;;;;;;;;;;;5096822;28;19920;-80
2022/09/14 15:48:13;;;;;;;;;;;;;;;;;;5079658;28;20314;-80
2022/09/14 15:50:42;;;;;;;;;;;;;;;;;;5098059;28;19923;-81
2022/09/14 15:53:07;;;;;;;;;;;;;;;;;;5096641;28;19916;-81
2022/09/14 15:55:33;;;;;;;;;;;;;;;;;;5079660;28;19923;-80
2022/09/14 15:57:58;;;;;;;;;;;;;;;;;;5096505;28;19923;-80
2022/09/14 16:00:24;;;;;;;;;;;;;;;;;;5097700;28;19923;-80
2022/09/14 16:02:49;;;;;;;;;;;;;;;;;;5097768;28;19959;-81
2022/09/14 16:05:17;;;;;;;;;;;;;;;;;;5096409;28;19963;-80
2022/09/14 16:07:43;;;;;;;;;;;;;;;;;;5097836;28;19949;-80
2022/09/14 16:10:08;;;;;;;;;;;;;;;;;;5095912;28;20019;-81
2022/09/14 16:12:33;;;;;;;;;;;;;;;;;;5096312;28;19916;-81
2022/09/14 16:14:59;;;;;;;;;;;;;;;;;;5096244;28;19917;-80
2022/09/14 16:17:24;;;;;;;;;;;;;;;;;;5097614;28;19923;-80
2022/09/14 16:19:50;;;;;;;;;;;;;;;;;;5099351;28;19916;-80
2022/09/14 16:22:15;;;;;;;;;;;;;;;;;;5117651;28;19972;-81
2022/09/14 16:24:41;;;;;;;;;;;;;;;;;;5099210;28;19916;-80
2022/09/14 16:27:06;;;;;;;;;;;;;;;;;;5117600;28;20317;-81
2022/09/14 16:29:31;;;;;;;;;;;;;;;;;;5117553;28;19916;-80
2022/09/14 16:31:57;;;;;;;;;;;;;;;;;;5099392;28;19916;-81
2022/09/14 16:34:23;;;;;;;;;;;;;;;;;;5099374;28;19916;-81
2022/09/14 16:36:49;;;;;;;;;;;;;;;;;;5099586;28;19955;-80
2022/09/14 16:39:24;;;;;;;;;;;;;;;;;;5117697;28;20001;-80
2022/09/14 16:41:49;;;;;;;;;;;;;;;;;;5100266;28;19916;-81
2022/09/14 16:44:15;;;;;;;;;;;;;;;;;;5082527;28;19989;-81
2022/09/14 16:46:41;;;;;;;;;;;;;;;;;;5099083;28;19915;-80
2022/09/14 16:49:06;;;;;;;;;;;;;;;;;;5082052;28;20226;-80
2022/09/14 16:51:31;;;;;;;;;;;;;;;;;;5117019;28;19916;-81
2022/09/14 16:53:57;;;;;;;;;;;;;;;;;;5116783;28;19972;-80
2022/09/14 16:56:23;;;;;;;;;;;;;;;;;;5081867;28;19916;-80
2022/09/14 16:58:49;;;;;;;;;;;;;;;;;;5099052;28;19915;-81
2022/09/14 17:01:19;;;;;;;;;;;;;;;;;;5116992;28;19916;-80
2022/09/14 17:03:45;;;;;;;;;;;;;;;;;;5098653;28;20363;-81
2022/09/14 17:06:12;;;;;;;;;;;;;;;;;;5098958;28;19923;-80
2022/09/14 17:08:38;;;;;;;;;;;;;;;;;;5098525;28;19922;-80
2022/09/14 17:11:03;;;;;;;;;;;;;;;;;;5116924;28;19916;-80
2022/09/14 17:13:28;;;;;;;;;;;;;;;;;;5117008;28;19915;-81
2022/09/14 17:16:04;;;;;;;;;;;;;;;;;;5116611;28;19920;-81
2022/09/14 17:18:29;;;;;;;;;;;;;;;;;;5098387;28;19927;-81
2022/09/14 17:20:57;;;;;;;;;;;;;;;;;;5098301;28;19917;-80